createdAt,value
2018-02-18T00:00:30.378Z,99.90
2018-02-18T00:01:33.673Z,99.90
2018-02-18T00:02:36.230Z,99.90
2018-02-18T00:03:39.542Z,99.90
2018-02-18T00:04:42.071Z,99.90
2018-02-18T00:05:45.371Z,99.80
2018-02-18T00:06:47.934Z,99.80
2018-02-18T00:07:50.457Z,99.70
2018-02-18T00:08:52.989Z,99.70
2018-02-18T00:09:55.513Z,99.70
2018-02-18T00:10:58.843Z,99.60
2018-02-18T00:12:01.384Z,99.70
2018-02-18T00:13:03.911Z,99.40
2018-02-18T00:14:10.070Z,99.60
2018-02-18T00:15:12.589Z,99.50
2018-02-18T00:16:15.145Z,99.40
2018-02-18T00:17:17.705Z,99.40
2018-02-18T00:18:20.240Z,99.40
2018-02-18T00:19:22.762Z,99.40
2018-02-18T00:20:25.287Z,99.40
2018-02-18T00:21:28.611Z,99.40
2018-02-18T00:22:31.156Z,99.30
2018-02-18T00:23:33.682Z,99.40
2018-02-18T00:24:36.258Z,99.50
2018-02-18T00:25:38.783Z,99.60
2018-02-18T00:26:41.313Z,99.30
2018-02-18T00:27:43.838Z,99.50
2018-02-18T00:28:46.366Z,99.60
2018-02-18T00:29:48.922Z,99.60
2018-02-18T00:30:51.459Z,99.80
2018-02-18T00:31:54.755Z,99.80
2018-02-18T00:32:58.055Z,99.80
2018-02-18T00:34:00.572Z,99.80
2018-02-18T00:35:03.130Z,99.70
2018-02-18T00:36:05.654Z,99.70
2018-02-18T00:37:08.186Z,99.60
2018-02-18T00:38:10.706Z,99.60
2018-02-18T00:39:13.270Z,99.60
2018-02-18T00:40:15.838Z,99.60
2018-02-18T00:41:18.398Z,99.50
2018-02-18T00:42:20.923Z,99.40
2018-02-18T00:43:24.223Z,99.40
2018-02-18T00:44:27.563Z,99.30
2018-02-18T00:45:30.093Z,99.30
2018-02-18T00:46:32.627Z,99.20
2018-02-18T00:47:35.918Z,99.30
2018-02-18T00:48:39.251Z,99.30
2018-02-18T00:49:41.774Z,99.30
2018-02-18T00:50:44.332Z,99.20
2018-02-18T00:51:47.648Z,99.30
2018-02-18T00:52:50.165Z,99.20
2018-02-18T00:53:52.693Z,99.30
2018-02-18T00:54:55.220Z,99.40
2018-02-18T00:55:58.541Z,99.30
2018-02-18T00:57:01.078Z,99.30
2018-02-18T00:58:03.607Z,99.40
2018-02-18T00:59:06.141Z,99.40
2018-02-18T01:00:08.701Z,99.40
2018-02-18T01:01:11.237Z,99.30
2018-02-18T01:02:14.574Z,99.40
2018-02-18T01:03:17.102Z,99.40
2018-02-18T01:04:19.642Z,99.30
2018-02-18T01:05:22.958Z,99.20
2018-02-18T01:06:25.481Z,99.20
2018-02-18T01:07:28.033Z,99.10
2018-02-18T01:08:30.557Z,99.10
2018-02-18T01:09:33.081Z,99.10
2018-02-18T01:10:35.604Z,99.10
2018-02-18T01:11:38.168Z,99.20
2018-02-18T01:12:40.709Z,99.30
2018-02-18T01:13:43.248Z,99.40
2018-02-18T01:14:46.533Z,99.40
2018-02-18T01:15:49.820Z,99.20
2018-02-18T01:16:53.141Z,99.20
2018-02-18T01:17:55.677Z,99.20
2018-02-18T01:18:58.968Z,99.20
2018-02-18T01:20:01.494Z,99.10
2018-02-18T01:21:04.022Z,99.10
2018-02-18T01:22:06.591Z,99.00
2018-02-18T01:23:09.178Z,99.00
2018-02-18T01:24:11.711Z,99.00
2018-02-18T01:25:14.234Z,99.00
2018-02-18T01:26:16.766Z,98.90
2018-02-18T01:27:19.298Z,98.80
2018-02-18T01:28:21.868Z,98.90
2018-02-18T01:29:24.415Z,98.80
2018-02-18T01:30:27.725Z,98.90
2018-02-18T01:31:30.258Z,99.00
2018-02-18T01:32:32.783Z,99.00
2018-02-18T01:33:35.341Z,99.20
2018-02-18T01:34:37.873Z,99.20
2018-02-18T01:35:41.168Z,99.10
2018-02-18T01:36:43.689Z,99.10
2018-02-18T01:37:46.218Z,98.90
2018-02-18T01:38:48.786Z,98.90
2018-02-18T01:39:51.308Z,98.90
2018-02-18T01:40:53.833Z,98.80
2018-02-18T01:41:56.365Z,98.80
2018-02-18T01:42:58.930Z,99.00
2018-02-18T01:44:01.479Z,99.10
2018-02-18T01:45:04.773Z,99.10
2018-02-18T01:46:07.301Z,99.10
2018-02-18T01:47:09.849Z,99.10
2018-02-18T01:48:12.422Z,99.00
2018-02-18T01:49:14.989Z,99.10
2018-02-18T01:50:29.450Z,99.10
2018-02-18T01:51:31.982Z,99.10
2018-02-18T01:52:34.510Z,99.10
2018-02-18T01:53:37.851Z,99.00
2018-02-18T01:54:40.378Z,99.00
2018-02-18T01:55:42.900Z,98.90
2018-02-18T01:56:45.418Z,98.70
2018-02-18T01:57:47.937Z,98.70
2018-02-18T01:58:50.501Z,98.70
2018-02-18T01:59:53.065Z,98.70
2018-02-18T02:00:55.614Z,98.60
2018-02-18T02:01:58.136Z,98.60
2018-02-18T02:03:01.430Z,98.70
2018-02-18T02:04:03.958Z,98.70
2018-02-18T02:05:07.304Z,98.80
2018-02-18T02:06:09.831Z,98.80
2018-02-18T02:07:13.132Z,98.60
2018-02-18T02:08:15.654Z,98.60
2018-02-18T02:09:18.179Z,98.80
2018-02-18T02:10:20.750Z,98.70
2018-02-18T02:11:23.274Z,98.70
2018-02-18T02:12:26.565Z,98.60
2018-02-18T02:13:29.854Z,98.60
2018-02-18T02:14:32.377Z,98.60
2018-02-18T02:15:34.945Z,98.60
2018-02-18T02:16:37.467Z,98.70
2018-02-18T02:17:39.994Z,98.70
2018-02-18T02:18:42.508Z,98.70
2018-02-18T02:19:45.036Z,98.40
2018-02-18T02:20:48.349Z,98.70
2018-02-18T02:21:50.870Z,98.70
2018-02-18T02:22:53.398Z,98.70
2018-02-18T02:23:55.922Z,98.60
2018-02-18T02:24:59.205Z,98.70
2018-02-18T02:26:02.526Z,98.70
2018-02-18T02:27:05.050Z,98.70
2018-02-18T02:29:17.440Z,98.50
2018-02-18T02:30:19.966Z,98.40
2018-02-18T02:31:23.364Z,98.50
2018-02-18T02:32:25.897Z,98.50
2018-02-18T02:33:28.458Z,98.60
2018-02-18T02:34:31.024Z,98.40
2018-02-18T02:35:33.555Z,98.10
2018-02-18T02:36:36.874Z,98.10
2018-02-18T02:37:39.402Z,98.10
2018-02-18T02:38:41.955Z,98.10
2018-02-18T02:39:44.529Z,98.40
2018-02-18T02:40:47.055Z,98.30
2018-02-18T02:41:49.576Z,98.60
2018-02-18T02:42:52.878Z,98.30
2018-02-18T02:43:56.166Z,98.40
2018-02-18T02:44:58.721Z,98.40
2018-02-18T02:46:02.015Z,98.40
2018-02-18T02:47:04.546Z,98.40
2018-02-18T02:48:07.066Z,98.70
2018-02-18T02:49:09.624Z,98.70
2018-02-18T02:50:12.199Z,98.80
2018-02-18T02:51:14.736Z,98.80
2018-02-18T02:52:18.101Z,99.30
2018-02-18T02:53:20.590Z,99.30
2018-02-18T02:54:23.873Z,99.30
2018-02-18T02:56:36.194Z,99.30
2018-02-18T02:57:38.711Z,99.20
2018-02-18T02:58:41.250Z,99.20
2018-02-18T02:59:43.815Z,99.20
2018-02-18T03:00:46.371Z,99.20
2018-02-18T03:01:48.928Z,99.10
2018-02-18T03:02:51.467Z,99.20
2018-02-18T03:03:54.811Z,99.10
2018-02-18T03:04:57.333Z,99.10
2018-02-18T03:05:59.861Z,99.40
2018-02-18T03:07:02.387Z,99.00
2018-02-18T03:08:04.925Z,99.10
2018-02-18T03:09:08.249Z,99.00
2018-02-18T03:10:10.770Z,98.90
2018-02-18T03:11:14.048Z,98.90
2018-02-18T03:12:17.378Z,98.90
2018-02-18T03:13:19.913Z,98.90
2018-02-18T03:14:22.436Z,98.70
2018-02-18T03:15:25.112Z,98.70
2018-02-18T03:16:27.655Z,98.70
2018-02-18T03:17:30.378Z,98.70
2018-02-18T03:18:33.702Z,98.70
2018-02-18T03:19:36.217Z,98.60
2018-02-18T03:20:39.517Z,99.00
2018-02-18T03:21:42.810Z,98.70
2018-02-18T03:22:45.333Z,98.70
2018-02-18T03:23:47.905Z,98.80
2018-02-18T03:24:50.432Z,98.70
2018-02-18T03:25:52.954Z,98.60
2018-02-18T03:26:56.237Z,98.60
2018-02-18T03:27:59.526Z,98.60
2018-02-18T03:29:02.861Z,98.60
2018-02-18T03:30:05.390Z,98.60
2018-02-18T03:31:07.915Z,98.40
2018-02-18T03:32:10.441Z,98.20
2018-02-18T03:33:12.968Z,98.10
2018-02-18T03:34:16.288Z,98.10
2018-02-18T03:35:18.861Z,98.10
2018-02-18T03:36:22.125Z,98.00
2018-02-18T03:37:24.649Z,98.00
2018-02-18T03:38:27.173Z,98.00
2018-02-18T03:39:29.721Z,98.00
2018-02-18T03:40:32.286Z,97.90
2018-02-18T03:41:34.818Z,97.90
2018-02-18T03:42:37.341Z,98.00
2018-02-18T03:43:40.043Z,98.00
2018-02-18T03:44:42.588Z,98.00
2018-02-18T03:45:45.142Z,97.70
2018-02-18T03:46:47.653Z,97.90
2018-02-18T03:47:50.175Z,97.90
2018-02-18T03:48:52.698Z,98.00
2018-02-18T03:49:56.006Z,97.90
2018-02-18T03:50:58.565Z,97.90
2018-02-18T03:52:01.090Z,97.80
2018-02-18T03:53:03.621Z,97.60
2018-02-18T03:54:06.138Z,97.50
2018-02-18T03:55:08.653Z,97.40
2018-02-18T03:56:12.088Z,97.40
2018-02-18T03:57:14.658Z,97.40
2018-02-18T03:58:17.185Z,97.20
2018-02-18T03:59:19.717Z,97.40
2018-02-18T04:00:22.241Z,97.30
2018-02-18T04:01:24.769Z,97.30
2018-02-18T04:02:27.325Z,97.70
2018-02-18T04:03:29.841Z,97.40
2018-02-18T04:04:32.361Z,97.50
2018-02-18T04:05:34.886Z,97.60
2018-02-18T04:06:37.411Z,97.50
2018-02-18T04:07:39.975Z,97.60
2018-02-18T04:08:42.495Z,97.30
2018-02-18T04:09:45.781Z,97.40
2018-02-18T04:10:49.110Z,97.40
2018-02-18T04:11:51.630Z,97.40
2018-02-18T04:12:54.943Z,97.40
2018-02-18T04:13:57.462Z,97.40
2018-02-18T04:15:00.011Z,97.30
2018-02-18T04:16:02.527Z,97.20
2018-02-18T04:17:05.054Z,97.30
2018-02-18T04:18:07.578Z,97.30
2018-02-18T04:19:10.093Z,97.40
2018-02-18T04:20:12.651Z,97.40
2018-02-18T04:21:15.185Z,97.50
2018-02-18T04:22:17.716Z,97.30
2018-02-18T04:23:21.041Z,97.50
2018-02-18T04:24:23.580Z,97.50
2018-02-18T04:25:26.106Z,97.70
2018-02-18T04:26:28.631Z,97.80
2018-02-18T04:27:31.190Z,97.80
2018-02-18T04:28:33.717Z,98.20
2018-02-18T04:29:37.033Z,98.40
2018-02-18T04:30:39.557Z,98.40
2018-02-18T04:31:42.084Z,98.70
2018-02-18T04:32:44.637Z,98.50
2018-02-18T04:33:47.153Z,98.80
2018-02-18T04:34:49.684Z,98.90
2018-02-18T04:35:52.210Z,99.00
2018-02-18T04:36:55.541Z,98.80
2018-02-18T04:37:58.062Z,98.80
2018-02-18T04:39:01.389Z,98.60
2018-02-18T04:40:03.905Z,98.60
2018-02-18T04:41:07.201Z,98.50
2018-02-18T04:42:09.726Z,98.50
2018-02-18T04:43:12.265Z,98.50
2018-02-18T04:44:14.817Z,98.40
2018-02-18T04:45:17.340Z,98.20
2018-02-18T04:46:20.628Z,98.10
2018-02-18T04:47:23.928Z,98.30
2018-02-18T04:48:26.466Z,98.30
2018-02-18T04:49:29.041Z,98.40
2018-02-18T04:50:31.570Z,98.30
2018-02-18T04:51:34.097Z,98.50
2018-02-18T04:52:36.629Z,98.40
2018-02-18T04:53:39.154Z,98.40
2018-02-18T04:54:41.716Z,98.30
2018-02-18T04:55:44.271Z,98.00
2018-02-18T04:56:46.794Z,98.00
2018-02-18T04:57:49.326Z,98.00
2018-02-18T04:58:51.888Z,97.80
2018-02-18T04:59:54.410Z,97.90
2018-02-18T05:00:57.704Z,97.70
2018-02-18T05:02:00.993Z,97.60
2018-02-18T05:03:03.522Z,97.60
2018-02-18T05:04:06.099Z,97.40
2018-02-18T05:05:08.619Z,97.30
2018-02-18T05:06:11.306Z,97.40
2018-02-18T05:07:13.841Z,97.50
2018-02-18T05:08:16.369Z,97.50
2018-02-18T05:09:18.931Z,97.40
2018-02-18T05:10:21.502Z,97.50
2018-02-18T05:11:24.030Z,97.30
2018-02-18T05:12:26.557Z,97.10
2018-02-18T05:13:29.836Z,97.10
2018-02-18T05:14:33.131Z,97.10
2018-02-18T05:15:35.684Z,97.10
2018-02-18T05:16:38.977Z,97.40
2018-02-18T05:17:41.493Z,97.40
2018-02-18T05:18:44.014Z,97.40
2018-02-18T05:19:46.570Z,97.30
2018-02-18T05:20:49.868Z,97.40
2018-02-18T05:21:52.431Z,97.30
2018-02-18T05:22:54.955Z,97.50
2018-02-18T05:23:57.525Z,97.50
2018-02-18T05:25:00.042Z,97.40
2018-02-18T05:26:02.569Z,97.70
2018-02-18T05:27:05.849Z,97.60
2018-02-18T05:28:08.371Z,97.40
2018-02-18T05:29:10.936Z,97.20
2018-02-18T05:30:13.467Z,97.30
2018-02-18T05:31:16.760Z,97.40
2018-02-18T05:32:19.286Z,97.40
2018-02-18T05:33:21.814Z,97.50
2018-02-18T05:34:24.372Z,97.60
2018-02-18T05:35:26.919Z,97.60
2018-02-18T05:36:29.486Z,97.70
2018-02-18T05:37:32.018Z,97.80
2018-02-18T05:38:34.574Z,98.20
2018-02-18T05:39:37.202Z,98.50
2018-02-18T05:40:39.773Z,98.70
2018-02-18T05:41:42.298Z,98.80
2018-02-18T05:42:45.590Z,98.60
2018-02-18T05:43:48.909Z,98.60
2018-02-18T05:44:51.472Z,98.60
2018-02-18T05:45:54.003Z,98.90
2018-02-18T05:46:57.303Z,99.10
2018-02-18T05:47:59.842Z,99.10
2018-02-18T05:49:02.364Z,99.00
2018-02-18T05:50:06.533Z,99.20
2018-02-18T05:51:09.818Z,99.20
2018-02-18T05:52:13.114Z,99.10
2018-02-18T05:53:15.638Z,99.10
2018-02-18T05:54:18.152Z,98.90
2018-02-18T05:55:20.713Z,98.90
2018-02-18T05:56:23.248Z,98.90
2018-02-18T05:57:26.586Z,98.90
2018-02-18T05:58:29.139Z,98.80
2018-02-18T05:59:31.662Z,98.80
2018-02-18T06:00:34.201Z,98.80
2018-02-18T06:01:36.735Z,98.60
2018-02-18T06:02:39.301Z,98.50
2018-02-18T06:03:41.827Z,98.50
2018-02-18T06:04:44.354Z,98.40
2018-02-18T06:05:47.072Z,98.30
2018-02-18T06:06:50.353Z,98.50
2018-02-18T06:07:53.684Z,98.60
2018-02-18T06:08:56.205Z,98.40
2018-02-18T06:09:59.497Z,98.40
2018-02-18T06:11:02.830Z,98.30
2018-02-18T06:12:05.350Z,98.30
2018-02-18T06:13:08.642Z,98.30
2018-02-18T06:14:11.199Z,98.30
2018-02-18T06:15:14.495Z,98.30
2018-02-18T06:16:17.054Z,98.20
2018-02-18T06:17:20.382Z,98.20
2018-02-18T06:18:22.915Z,98.20
2018-02-18T06:19:25.443Z,98.30
2018-02-18T06:20:27.970Z,98.10
2018-02-18T06:21:31.278Z,98.10
2018-02-18T06:22:33.862Z,98.00
2018-02-18T06:23:36.469Z,98.20
2018-02-18T06:24:38.997Z,98.20
2018-02-18T06:25:41.516Z,98.10
2018-02-18T06:26:44.049Z,97.90
2018-02-18T06:27:47.370Z,98.10
2018-02-18T06:28:49.888Z,98.00
2018-02-18T06:29:52.414Z,97.90
2018-02-18T06:30:54.972Z,98.10
2018-02-18T06:31:57.493Z,98.00
2018-02-18T06:33:00.789Z,97.80
2018-02-18T06:34:03.321Z,97.80
2018-02-18T06:35:05.844Z,97.70
2018-02-18T06:36:08.408Z,97.60
2018-02-18T06:37:10.961Z,97.50
2018-02-18T06:38:13.544Z,97.70
2018-02-18T06:39:16.831Z,97.70
2018-02-18T06:40:19.355Z,97.70
2018-02-18T06:41:22.646Z,97.80
2018-02-18T06:42:25.933Z,97.90
2018-02-18T06:43:29.259Z,98.00
2018-02-18T06:44:31.780Z,98.00
2018-02-18T06:45:35.077Z,97.60
2018-02-18T06:46:37.609Z,97.60
2018-02-18T06:47:40.298Z,97.60
2018-02-18T06:48:43.627Z,97.70
2018-02-18T06:49:46.153Z,97.60
2018-02-18T06:50:49.465Z,98.00
2018-02-18T06:51:52.028Z,98.00
2018-02-18T06:52:54.544Z,98.00
2018-02-18T06:53:57.105Z,98.00
2018-02-18T06:54:59.624Z,97.90
2018-02-18T06:56:02.149Z,97.70
2018-02-18T06:57:04.679Z,97.90
2018-02-18T06:58:07.201Z,97.90
2018-02-18T06:59:10.532Z,97.80
2018-02-18T07:00:13.061Z,97.70
2018-02-18T07:01:15.595Z,97.70
2018-02-18T07:02:18.125Z,97.60
2018-02-18T07:03:20.654Z,97.60
2018-02-18T07:04:23.214Z,97.70
2018-02-18T07:05:26.502Z,97.40
2018-02-18T07:06:29.808Z,97.30
2018-02-18T07:07:32.334Z,97.20
2018-02-18T07:08:35.681Z,97.60
2018-02-18T07:09:38.197Z,97.40
2018-02-18T07:10:41.526Z,97.30
2018-02-18T07:11:44.054Z,97.30
2018-02-18T07:12:47.346Z,96.90
2018-02-18T07:13:49.926Z,96.90
2018-02-18T07:14:52.455Z,96.80
2018-02-18T07:15:55.751Z,97.10
2018-02-18T07:16:59.057Z,97.30
2018-02-18T07:18:01.583Z,97.30
2018-02-18T07:19:04.158Z,97.30
2018-02-18T07:20:07.453Z,97.60
2018-02-18T07:21:10.737Z,97.60
2018-02-18T07:22:14.031Z,97.70
2018-02-18T07:23:16.561Z,97.60
2018-02-18T07:24:19.123Z,97.80
2018-02-18T07:25:21.649Z,97.80
2018-02-18T07:26:24.173Z,97.80
2018-02-18T07:27:27.465Z,97.80
2018-02-18T07:28:30.769Z,97.70
2018-02-18T07:29:33.378Z,97.70
2018-02-18T07:30:35.907Z,97.80
2018-02-18T07:31:38.451Z,97.80
2018-02-18T07:32:41.750Z,97.80
2018-02-18T07:33:44.281Z,97.80
2018-02-18T07:34:46.860Z,97.60
2018-02-18T07:35:50.157Z,97.70
2018-02-18T07:36:53.454Z,97.90
2018-02-18T07:37:55.982Z,97.90
2018-02-18T07:38:58.514Z,97.80
2018-02-18T07:40:01.074Z,97.60
2018-02-18T07:41:03.602Z,97.30
2018-02-18T07:42:06.894Z,97.70
2018-02-18T07:43:09.451Z,97.70
2018-02-18T07:44:12.740Z,97.50
2018-02-18T07:45:16.079Z,97.60
2018-02-18T07:46:18.608Z,97.60
2018-02-18T07:47:21.144Z,97.60
2018-02-18T07:48:24.436Z,97.60
2018-02-18T07:49:27.725Z,97.60
2018-02-18T07:50:30.281Z,97.60
2018-02-18T07:51:33.651Z,97.40
2018-02-18T07:52:36.216Z,97.40
2018-02-18T07:53:38.754Z,97.60
2018-02-18T07:54:41.287Z,97.40
2018-02-18T07:55:43.813Z,97.30
2018-02-18T07:56:46.386Z,97.30
2018-02-18T07:57:48.910Z,97.30
2018-02-18T07:58:51.449Z,97.20
2018-02-18T07:59:53.972Z,97.10
2018-02-18T08:00:56.500Z,96.90
2018-02-18T08:01:59.068Z,96.90
2018-02-18T08:03:01.628Z,96.70
2018-02-18T08:04:04.177Z,96.90
2018-02-18T08:05:06.702Z,96.90
2018-02-18T08:06:09.238Z,97.00
2018-02-18T08:07:11.819Z,96.90
2018-02-18T08:08:14.350Z,97.00
2018-02-18T08:09:16.870Z,97.10
2018-02-18T08:10:19.398Z,97.10
2018-02-18T08:11:21.958Z,97.10
2018-02-18T08:12:24.491Z,97.10
2018-02-18T08:13:27.809Z,97.10
2018-02-18T08:14:30.338Z,97.00
2018-02-18T08:15:33.647Z,97.10
2018-02-18T08:16:36.206Z,97.10
2018-02-18T08:17:38.735Z,97.30
2018-02-18T08:18:41.279Z,97.20
2018-02-18T08:19:43.805Z,97.40
2018-02-18T08:20:46.476Z,97.10
2018-02-18T08:21:49.036Z,97.10
2018-02-18T08:22:51.565Z,97.10
2018-02-18T08:23:54.089Z,97.10
2018-02-18T08:24:56.628Z,97.10
2018-02-18T08:25:59.921Z,97.10
2018-02-18T08:27:02.487Z,97.10
2018-02-18T08:28:05.013Z,97.10
2018-02-18T08:29:07.540Z,97.10
2018-02-18T08:30:10.124Z,97.10
2018-02-18T08:31:13.418Z,97.10
2018-02-18T08:32:15.942Z,97.10
2018-02-18T08:33:18.524Z,97.10
2018-02-18T08:34:21.053Z,97.00
2018-02-18T08:35:24.348Z,97.20
2018-02-18T08:36:27.630Z,97.20
2018-02-18T08:37:30.152Z,97.20
2018-02-18T08:38:32.713Z,97.10
2018-02-18T08:39:35.237Z,97.20
2018-02-18T08:40:37.764Z,97.30
2018-02-18T08:41:40.293Z,97.30
2018-02-18T08:42:42.821Z,97.40
2018-02-18T08:43:46.149Z,97.30
2018-02-18T08:44:48.690Z,97.30
2018-02-18T08:45:51.218Z,97.20
2018-02-18T08:46:53.746Z,97.20
2018-02-18T08:47:56.293Z,97.00
2018-02-18T08:48:58.861Z,97.00
2018-02-18T08:50:01.391Z,96.90
2018-02-18T08:51:04.686Z,97.00
2018-02-18T08:52:07.978Z,97.10
2018-02-18T08:53:11.266Z,97.00
2018-02-18T08:54:13.821Z,97.00
2018-02-18T08:55:17.113Z,97.20
2018-02-18T08:56:20.402Z,97.10
2018-02-18T08:57:22.935Z,97.10
2018-02-18T08:58:25.464Z,97.10
2018-02-18T08:59:28.028Z,97.20
2018-02-18T09:00:30.578Z,97.50
2018-02-18T09:01:33.113Z,97.60
2018-02-18T09:02:36.438Z,97.50
2018-02-18T09:03:39.064Z,97.40
2018-02-18T09:04:42.362Z,97.30
2018-02-18T09:05:45.011Z,97.30
2018-02-18T09:06:47.577Z,97.30
2018-02-18T09:07:50.133Z,97.30
2018-02-18T09:08:52.658Z,97.30
2018-02-18T09:09:55.186Z,97.30
2018-02-18T09:10:57.831Z,97.30
2018-02-18T09:12:00.404Z,97.50
2018-02-18T09:13:02.961Z,97.60
2018-02-18T09:14:05.490Z,97.70
2018-02-18T09:15:08.017Z,97.90
2018-02-18T09:16:11.739Z,98.10
2018-02-18T09:17:14.314Z,98.10
2018-02-18T09:18:16.836Z,98.10
2018-02-18T09:19:19.385Z,98.20
2018-02-18T09:20:21.923Z,98.10
2018-02-18T09:21:24.453Z,98.30
2018-02-18T09:22:27.793Z,98.10
2018-02-18T09:23:30.325Z,98.10
2018-02-18T09:24:32.858Z,97.90
2018-02-18T09:25:36.146Z,97.90
2018-02-18T09:26:39.424Z,97.80
2018-02-18T09:27:42.753Z,97.70
2018-02-18T09:28:45.286Z,97.70
2018-02-18T09:29:48.571Z,97.80
2018-02-18T09:30:51.925Z,97.80
2018-02-18T09:31:54.451Z,97.80
2018-02-18T09:32:56.974Z,97.80
2018-02-18T09:34:00.267Z,97.90
2018-02-18T09:35:03.555Z,97.90
2018-02-18T09:36:06.873Z,97.70
2018-02-18T09:37:09.437Z,97.70
2018-02-18T09:38:12.001Z,97.70
2018-02-18T09:39:14.546Z,97.70
2018-02-18T09:40:17.072Z,97.90
2018-02-18T09:41:19.598Z,97.70
2018-02-18T09:42:22.124Z,97.60
2018-02-18T09:43:25.467Z,97.30
2018-02-18T09:44:28.025Z,97.30
2018-02-18T09:45:30.552Z,97.40
2018-02-18T09:46:33.850Z,97.20
2018-02-18T09:47:36.372Z,97.20
2018-02-18T09:48:39.661Z,97.20
2018-02-18T09:49:42.242Z,97.20
2018-02-18T09:50:45.542Z,97.00
2018-02-18T09:51:48.844Z,97.00
2018-02-18T09:52:51.361Z,97.00
2018-02-18T09:53:53.892Z,96.60
2018-02-18T09:54:56.456Z,95.80
2018-02-18T09:55:59.086Z,94.40
2018-02-18T09:57:02.378Z,89.00
2018-02-18T09:58:05.665Z,84.50
2018-02-18T09:59:08.230Z,83.70
2018-02-18T10:00:10.790Z,79.40
2018-02-18T10:01:14.074Z,72.60
2018-02-18T10:02:17.365Z,68.30
2018-02-18T10:03:19.899Z,68.20
2018-02-18T10:04:22.433Z,63.40
2018-02-18T10:05:25.020Z,60.70
2018-02-18T10:06:27.549Z,58.40
2018-02-18T10:07:30.080Z,55.80
2018-02-18T10:08:33.391Z,54.00
2018-02-18T10:09:35.916Z,53.90
2018-02-18T10:10:38.474Z,52.00
2018-02-18T10:11:40.998Z,51.50
2018-02-18T10:12:43.573Z,50.30
2018-02-18T10:13:46.094Z,49.20
2018-02-18T10:14:49.387Z,50.60
2018-02-18T10:15:52.679Z,51.20
2018-02-18T10:16:55.206Z,51.20
2018-02-18T10:17:57.758Z,49.90
2018-02-18T10:19:00.288Z,49.00
2018-02-18T10:20:02.814Z,47.30
2018-02-18T10:21:05.336Z,47.50
2018-02-18T10:22:07.867Z,48.70
2018-02-18T10:23:11.192Z,49.30
2018-02-18T10:24:13.716Z,49.30
2018-02-18T10:25:17.107Z,50.00
2018-02-18T10:26:19.580Z,50.00
2018-02-18T10:27:22.101Z,50.00
2018-02-18T10:28:24.641Z,48.20
2018-02-18T10:29:27.200Z,47.60
2018-02-18T10:30:29.774Z,46.60
2018-02-18T10:31:32.303Z,47.40
2018-02-18T10:32:34.838Z,46.60
2018-02-18T10:33:37.367Z,46.50
2018-02-18T10:34:39.898Z,45.90
2018-02-18T10:35:43.314Z,45.80
2018-02-18T10:36:45.833Z,45.80
2018-02-18T10:37:48.588Z,46.90
2018-02-18T10:38:51.116Z,46.60
2018-02-18T10:39:53.655Z,45.50
2018-02-18T10:40:56.970Z,47.20
2018-02-18T10:41:59.494Z,47.10
2018-02-18T10:43:02.797Z,47.40
2018-02-18T10:44:05.317Z,47.40
2018-02-18T10:45:07.889Z,46.50
2018-02-18T10:46:10.617Z,45.10
2018-02-18T10:47:13.137Z,43.40
2018-02-18T10:48:15.662Z,44.20
2018-02-18T10:49:18.190Z,43.60
2018-02-18T10:50:21.527Z,45.50
2018-02-18T10:51:24.057Z,45.40
2018-02-18T10:52:26.576Z,46.00
2018-02-18T10:53:29.157Z,47.30
2018-02-18T10:54:31.680Z,46.40
2018-02-18T10:55:34.200Z,45.20
2018-02-18T10:56:37.502Z,46.90
2018-02-18T10:57:40.046Z,46.90
2018-02-18T10:58:43.377Z,46.30
2018-02-18T10:59:46.081Z,46.20
2018-02-18T11:00:48.613Z,44.90
2018-02-18T11:01:51.897Z,45.90
2018-02-18T11:02:54.434Z,45.80
2018-02-18T11:03:56.998Z,45.10
2018-02-18T11:04:59.522Z,46.60
2018-02-18T11:06:02.051Z,46.40
2018-02-18T11:07:04.577Z,47.90
2018-02-18T11:08:07.882Z,48.90
2018-02-18T11:09:10.445Z,48.90
2018-02-18T11:10:13.739Z,50.40
2018-02-18T11:11:16.264Z,50.50
2018-02-18T11:12:18.790Z,48.80
2018-02-18T11:13:21.358Z,49.40
2018-02-18T11:14:23.893Z,48.30
2018-02-18T11:15:27.179Z,51.70
2018-02-18T11:16:29.724Z,51.60
2018-02-18T11:17:33.020Z,53.40
2018-02-18T11:18:36.309Z,53.90
2018-02-18T11:19:39.608Z,54.00
2018-02-18T11:20:42.130Z,54.00
2018-02-18T11:21:44.774Z,54.80
2018-02-18T11:22:47.298Z,54.70
2018-02-18T11:23:49.859Z,55.40
2018-02-18T11:24:52.393Z,55.70
2018-02-18T11:25:54.986Z,55.10
2018-02-18T11:26:58.282Z,55.40
2018-02-18T11:28:00.806Z,55.30
2018-02-18T11:29:03.329Z,57.10
2018-02-18T11:30:05.842Z,56.30
2018-02-18T11:31:08.407Z,56.20
2018-02-18T11:32:10.916Z,57.10
2018-02-18T11:33:13.438Z,55.90
2018-02-18T11:34:15.965Z,56.30
2018-02-18T11:35:18.484Z,56.60
2018-02-18T11:36:21.034Z,55.70
2018-02-18T11:37:23.562Z,57.10
2018-02-18T11:38:26.118Z,58.30
2018-02-18T11:39:28.653Z,58.30
2018-02-18T11:40:31.957Z,58.60
2018-02-18T11:41:34.469Z,58.60
2018-02-18T11:42:36.990Z,57.90
2018-02-18T11:43:40.341Z,55.80
2018-02-18T11:44:42.862Z,55.70
2018-02-18T11:45:45.398Z,57.50
2018-02-18T11:46:47.938Z,58.40
2018-02-18T11:47:50.453Z,58.60
2018-02-18T11:48:53.022Z,58.00
2018-02-18T11:49:55.541Z,57.10
2018-02-18T11:50:58.063Z,57.40
2018-02-18T11:52:00.586Z,56.20
2018-02-18T11:53:03.874Z,57.00
2018-02-18T11:54:07.194Z,56.80
2018-02-18T11:55:09.729Z,56.80
2018-02-18T11:56:13.023Z,57.00
2018-02-18T11:57:15.556Z,56.90
2018-02-18T11:58:18.075Z,57.80
2018-02-18T11:59:20.626Z,59.10
2018-02-18T12:00:23.145Z,59.60
2018-02-18T12:01:25.686Z,57.10
2018-02-18T12:02:28.243Z,57.10
2018-02-18T12:03:30.856Z,57.20
2018-02-18T12:04:33.373Z,56.10
2018-02-18T12:05:36.040Z,56.90
2018-02-18T12:06:38.589Z,55.80
2018-02-18T12:07:41.109Z,56.00
2018-02-18T12:08:43.626Z,55.60
2018-02-18T12:09:46.168Z,54.10
2018-02-18T12:10:49.494Z,54.00
2018-02-18T12:11:52.026Z,54.00
2018-02-18T12:12:54.556Z,53.30
2018-02-18T12:13:57.080Z,52.80
2018-02-18T12:14:59.622Z,51.60
2018-02-18T12:16:02.913Z,51.90
2018-02-18T12:17:05.457Z,52.10
2018-02-18T12:18:08.784Z,50.50
2018-02-18T12:19:11.314Z,50.40
2018-02-18T12:20:14.635Z,47.80
2018-02-18T12:21:17.162Z,48.00
2018-02-18T12:22:20.462Z,46.90
2018-02-18T12:23:23.025Z,46.90
2018-02-18T12:24:26.313Z,46.10
2018-02-18T12:25:28.847Z,46.10
2018-02-18T12:26:31.361Z,45.70
2018-02-18T12:27:33.912Z,45.10
2018-02-18T12:28:36.442Z,45.80
2018-02-18T12:29:38.973Z,46.80
2018-02-18T12:30:41.505Z,45.90
2018-02-18T12:31:44.890Z,46.60
2018-02-18T12:32:48.224Z,45.90
2018-02-18T12:33:50.770Z,45.90
2018-02-18T12:34:53.303Z,47.50
2018-02-18T12:35:56.597Z,45.50
2018-02-18T12:36:59.153Z,45.50
2018-02-18T12:38:02.446Z,43.00
2018-02-18T12:39:04.982Z,42.90
2018-02-18T12:40:07.619Z,41.80
2018-02-18T12:41:10.147Z,42.30
2018-02-18T12:42:12.709Z,42.30
2018-02-18T12:43:15.998Z,43.70
2018-02-18T12:44:18.522Z,43.70
2018-02-18T12:45:21.051Z,43.60
2018-02-18T12:46:23.572Z,43.30
2018-02-18T12:47:26.143Z,43.40
2018-02-18T12:48:29.432Z,43.00
2018-02-18T12:49:32.772Z,43.20
2018-02-18T12:50:35.314Z,43.20
2018-02-18T12:51:37.854Z,42.60
2018-02-18T12:52:41.143Z,43.20
2018-02-18T12:53:44.424Z,41.90
2018-02-18T12:54:46.989Z,41.90
2018-02-18T12:55:50.289Z,41.40
2018-02-18T12:56:52.834Z,41.40
2018-02-18T12:57:56.174Z,41.40
2018-02-18T12:58:58.699Z,41.40
2018-02-18T13:00:01.991Z,42.40
2018-02-18T13:01:04.533Z,42.40
2018-02-18T13:02:07.866Z,44.20
2018-02-18T13:03:10.438Z,44.10
2018-02-18T13:04:12.989Z,43.50
2018-02-18T13:05:15.560Z,44.60
2018-02-18T13:06:18.085Z,43.20
2018-02-18T13:07:21.392Z,44.00
2018-02-18T13:08:23.928Z,43.90
2018-02-18T13:09:27.231Z,43.00
2018-02-18T13:10:30.566Z,42.60
2018-02-18T13:11:33.099Z,42.60
2018-02-18T13:12:35.626Z,42.00
2018-02-18T13:13:38.917Z,41.00
2018-02-18T13:14:42.204Z,41.10
2018-02-18T13:15:45.533Z,41.60
2018-02-18T13:16:48.086Z,41.60
2018-02-18T13:17:50.746Z,42.00
2018-02-18T13:18:53.271Z,41.70
2018-02-18T13:19:55.798Z,41.10
2018-02-18T13:20:58.404Z,40.70
2018-02-18T13:22:01.060Z,41.20
2018-02-18T13:23:03.596Z,42.90
2018-02-18T13:24:06.140Z,43.00
2018-02-18T13:25:08.676Z,42.80
2018-02-18T13:26:11.233Z,43.50
2018-02-18T13:27:13.793Z,43.20
2018-02-18T13:28:16.310Z,43.70
2018-02-18T13:29:18.876Z,44.50
2018-02-18T13:30:21.401Z,42.10